Terminal Aerodrome Forecast
Issued by NWS

Home | Current Version | Previous Version | Text Only | Print | Product List | Glossary On
Versions: 1 2 3 4 5 6 7 8 9 10 11 12 13 14 15 16 17
000
FTUS41 KBGM 191100
TAFITH
TAF
KITH 191130Z 1912/2012 33007KT P6SM SCT200
     FM191400 33012G20KT P6SM BKN035
     FM191700 33014G22KT P6SM SCT045
     FM192000 33015G27KT P6SM SKC
     FM200000 02004KT P6SM SKC=

USA.gov is the U.S. government's official web portal to all federal, state and local government web resources and services.